sensor_id;sensor_type;location;lat;lon;timestamp;P1;durP1;ratioP1;P2;durP2;ratioP2
17997;SDS011;9124;48.144;17.098;2022-09-27T00:02:34;11.65;;;9.65;;
17997;SDS011;9124;48.144;17.098;2022-09-27T00:06:24;11.07;;;10.27;;
17997;SDS011;9124;48.144;17.098;2022-09-27T00:10:02;11.25;;;10.35;;
17997;SDS011;9124;48.144;17.098;2022-09-27T00:13:39;12.40;;;11.30;;
17997;SDS011;9124;48.144;17.098;2022-09-27T00:17:16;14.45;;;13.07;;
17997;SDS011;9124;48.144;17.098;2022-09-27T00:20:52;15.23;;;12.52;;
17997;SDS011;9124;48.144;17.098;2022-09-27T00:24:29;14.20;;;12.77;;
17997;SDS011;9124;48.144;17.098;2022-09-27T00:28:06;13.05;;;11.98;;
17997;SDS011;9124;48.144;17.098;2022-09-27T00:31:43;13.27;;;12.18;;
17997;SDS011;9124;48.144;17.098;2022-09-27T00:35:20;12.77;;;11.48;;
17997;SDS011;9124;48.144;17.098;2022-09-27T00:38:57;12.23;;;11.02;;
17997;SDS011;9124;48.144;17.098;2022-09-27T00:42:37;11.00;;;10.25;;
17997;SDS011;9124;48.144;17.098;2022-09-27T00:46:14;11.23;;;10.25;;
17997;SDS011;9124;48.144;17.098;2022-09-27T00:50:21;10.82;;;9.77;;
17997;SDS011;9124;48.144;17.098;2022-09-27T00:54:12;12.13;;;11.15;;
17997;SDS011;9124;48.144;17.098;2022-09-27T00:57:52;14.07;;;12.68;;
17997;SDS011;9124;48.144;17.098;2022-09-27T01:01:29;13.70;;;12.60;;
17997;SDS011;9124;48.144;17.098;2022-09-27T01:05:06;13.68;;;12.48;;
17997;SDS011;9124;48.144;17.098;2022-09-27T01:08:44;13.05;;;12.15;;
17997;SDS011;9124;48.144;17.098;2022-09-27T01:12:28;13.00;;;12.00;;
17997;SDS011;9124;48.144;17.098;2022-09-27T01:16:26;14.82;;;12.60;;
17997;SDS011;9124;48.144;17.098;2022-09-27T01:24:24;12.30;;;11.15;;
17997;SDS011;9124;48.144;17.098;2022-09-27T01:35:50;12.18;;;11.23;;
17997;SDS011;9124;48.144;17.098;2022-09-27T01:39:38;12.60;;;11.30;;
17997;SDS011;9124;48.144;17.098;2022-09-27T01:43:40;14.23;;;12.85;;
17997;SDS011;9124;48.144;17.098;2022-09-27T01:47:48;16.35;;;14.65;;
17997;SDS011;9124;48.144;17.098;2022-09-27T01:51:54;15.07;;;13.50;;
17997;SDS011;9124;48.144;17.098;2022-09-27T01:55:35;14.32;;;13.15;;
17997;SDS011;9124;48.144;17.098;2022-09-27T01:59:35;15.00;;;13.68;;
17997;SDS011;9124;48.144;17.098;2022-09-27T02:03:42;17.65;;;14.52;;
17997;SDS011;9124;48.144;17.098;2022-09-27T02:07:44;15.10;;;13.55;;
17997;SDS011;9124;48.144;17.098;2022-09-27T02:11:28;15.80;;;14.48;;
17997;SDS011;9124;48.144;17.098;2022-09-27T02:15:18;16.75;;;15.25;;
17997;SDS011;9124;48.144;17.098;2022-09-27T02:23:17;20.33;;;18.17;;
17997;SDS011;9124;48.144;17.098;2022-09-27T02:27:35;19.10;;;17.23;;
17997;SDS011;9124;48.144;17.098;2022-09-27T02:31:29;16.27;;;14.70;;
17997;SDS011;9124;48.144;17.098;2022-09-27T02:35:25;15.60;;;14.35;;
17997;SDS011;9124;48.144;17.098;2022-09-27T02:39:04;13.38;;;12.38;;
17997;SDS011;9124;48.144;17.098;2022-09-27T02:42:42;13.05;;;11.95;;
17997;SDS011;9124;48.144;17.098;2022-09-27T02:58:23;14.73;;;13.43;;
17997;SDS011;9124;48.144;17.098;2022-09-27T03:02:38;15.35;;;13.88;;
17997;SDS011;9124;48.144;17.098;2022-09-27T03:06:46;17.42;;;15.43;;
17997;SDS011;9124;48.144;17.098;2022-09-27T03:10:25;19.33;;;16.52;;
17997;SDS011;9124;48.144;17.098;2022-09-27T03:14:03;16.33;;;14.73;;
17997;SDS011;9124;48.144;17.098;2022-09-27T03:17:40;18.15;;;16.30;;
17997;SDS011;9124;48.144;17.098;2022-09-27T03:21:36;26.17;;;15.90;;
17997;SDS011;9124;48.144;17.098;2022-09-27T03:25:12;15.75;;;14.32;;
17997;SDS011;9124;48.144;17.098;2022-09-27T03:28:49;17.98;;;15.38;;
17997;SDS011;9124;48.144;17.098;2022-09-27T03:32:26;19.20;;;17.30;;
17997;SDS011;9124;48.144;17.098;2022-09-27T03:36:22;21.60;;;19.27;;
17997;SDS011;9124;48.144;17.098;2022-09-27T03:39:59;28.45;;;19.58;;
17997;SDS011;9124;48.144;17.098;2022-09-27T03:43:36;21.33;;;18.52;;
17997;SDS011;9124;48.144;17.098;2022-09-27T03:47:13;18.98;;;17.10;;
17997;SDS011;9124;48.144;17.098;2022-09-27T03:50:50;17.67;;;15.85;;
17997;SDS011;9124;48.144;17.098;2022-09-27T03:54:26;17.15;;;15.45;;
17997;SDS011;9124;48.144;17.098;2022-09-27T03:58:03;17.23;;;15.73;;
17997;SDS011;9124;48.144;17.098;2022-09-27T04:01:41;16.25;;;14.77;;
17997;SDS011;9124;48.144;17.098;2022-09-27T04:05:39;16.92;;;15.13;;
17997;SDS011;9124;48.144;17.098;2022-09-27T04:09:20;15.23;;;13.85;;
17997;SDS011;9124;48.144;17.098;2022-09-27T04:13:25;15.07;;;13.68;;
17997;SDS011;9124;48.144;17.098;2022-09-27T04:17:04;18.38;;;14.77;;
17997;SDS011;9124;48.144;17.098;2022-09-27T04:20:58;15.73;;;14.38;;
17997;SDS011;9124;48.144;17.098;2022-09-27T04:24:34;16.55;;;14.82;;
17997;SDS011;9124;48.144;17.098;2022-09-27T04:28:30;20.13;;;15.75;;
17997;SDS011;9124;48.144;17.098;2022-09-27T04:32:08;18.55;;;16.65;;
17997;SDS011;9124;48.144;17.098;2022-09-27T04:36:08;22.33;;;16.45;;
17997;SDS011;9124;48.144;17.098;2022-09-27T04:40:10;21.77;;;17.42;;
17997;SDS011;9124;48.144;17.098;2022-09-27T04:43:46;20.15;;;18.27;;
17997;SDS011;9124;48.144;17.098;2022-09-27T04:47:23;20.88;;;18.73;;
17997;SDS011;9124;48.144;17.098;2022-09-27T04:51:00;24.85;;;18.48;;
17997;SDS011;9124;48.144;17.098;2022-09-27T04:54:37;20.13;;;18.15;;
17997;SDS011;9124;48.144;17.098;2022-09-27T04:58:19;20.75;;;18.27;;
17997;SDS011;9124;48.144;17.098;2022-09-27T05:01:57;21.10;;;19.00;;
17997;SDS011;9124;48.144;17.098;2022-09-27T05:05:59;22.65;;;19.50;;
17997;SDS011;9124;48.144;17.098;2022-09-27T05:09:36;26.25;;;19.05;;
17997;SDS011;9124;48.144;17.098;2022-09-27T05:13:12;30.98;;;21.05;;
17997;SDS011;9124;48.144;17.098;2022-09-27T05:16:49;29.80;;;21.60;;
17997;SDS011;9124;48.144;17.098;2022-09-27T05:20:49;32.40;;;22.58;;
17997;SDS011;9124;48.144;17.098;2022-09-27T05:24:33;38.42;;;23.55;;
17997;SDS011;9124;48.144;17.098;2022-09-27T05:28:10;32.28;;;20.83;;
17997;SDS011;9124;48.144;17.098;2022-09-27T05:31:46;24.38;;;20.50;;
17997;SDS011;9124;48.144;17.098;2022-09-27T05:35:24;29.92;;;21.00;;
17997;SDS011;9124;48.144;17.098;2022-09-27T05:39:02;35.05;;;21.60;;
17997;SDS011;9124;48.144;17.098;2022-09-27T05:42:39;26.67;;;21.52;;
17997;SDS011;9124;48.144;17.098;2022-09-27T05:46:16;29.35;;;21.30;;
17997;SDS011;9124;48.144;17.098;2022-09-27T05:49:53;36.17;;;24.00;;
17997;SDS011;9124;48.144;17.098;2022-09-27T05:53:30;38.85;;;24.45;;
17997;SDS011;9124;48.144;17.098;2022-09-27T05:57:07;30.25;;;23.73;;
17997;SDS011;9124;48.144;17.098;2022-09-27T06:00:55;33.03;;;24.40;;
17997;SDS011;9124;48.144;17.098;2022-09-27T06:05:00;42.72;;;27.02;;
17997;SDS011;9124;48.144;17.098;2022-09-27T06:08:56;36.20;;;23.48;;
17997;SDS011;9124;48.144;17.098;2022-09-27T06:12:35;29.00;;;22.05;;
17997;SDS011;9124;48.144;17.098;2022-09-27T06:16:19;35.30;;;22.77;;
17997;SDS011;9124;48.144;17.098;2022-09-27T06:19:55;28.40;;;21.75;;
17997;SDS011;9124;48.144;17.098;2022-09-27T06:23:31;25.48;;;21.67;;
17997;SDS011;9124;48.144;17.098;2022-09-27T06:27:13;27.50;;;22.33;;
17997;SDS011;9124;48.144;17.098;2022-09-27T06:31:05;26.05;;;22.08;;
17997;SDS011;9124;48.144;17.098;2022-09-27T06:35:03;29.58;;;21.52;;
17997;SDS011;9124;48.144;17.098;2022-09-27T06:38:41;31.70;;;21.95;;
17997;SDS011;9124;48.144;17.098;2022-09-27T06:42:21;31.17;;;22.15;;
17997;SDS011;9124;48.144;17.098;2022-09-27T06:46:14;33.45;;;23.23;;
17997;SDS011;9124;48.144;17.098;2022-09-27T06:50:06;36.28;;;23.60;;
17997;SDS011;9124;48.144;17.098;2022-09-27T06:53:43;32.92;;;25.27;;
17997;SDS011;9124;48.144;17.098;2022-09-27T06:57:19;33.83;;;25.50;;
17997;SDS011;9124;48.144;17.098;2022-09-27T07:01:16;36.83;;;26.75;;
17997;SDS011;9124;48.144;17.098;2022-09-27T07:05:11;37.92;;;27.10;;
17997;SDS011;9124;48.144;17.098;2022-09-27T07:08:55;47.03;;;29.48;;
17997;SDS011;9124;48.144;17.098;2022-09-27T07:12:31;52.85;;;32.83;;
17997;SDS011;9124;48.144;17.098;2022-09-27T07:16:12;44.95;;;29.33;;
17997;SDS011;9124;48.144;17.098;2022-09-27T07:19:52;33.47;;;25.73;;
17997;SDS011;9124;48.144;17.098;2022-09-27T07:23:29;39.45;;;26.10;;
17997;SDS011;9124;48.144;17.098;2022-09-27T07:27:06;25.17;;;20.45;;
17997;SDS011;9124;48.144;17.098;2022-09-27T07:30:44;31.65;;;22.58;;
17997;SDS011;9124;48.144;17.098;2022-09-27T07:34:21;32.10;;;22.55;;
17997;SDS011;9124;48.144;17.098;2022-09-27T07:37:57;29.30;;;21.38;;
17997;SDS011;9124;48.144;17.098;2022-09-27T07:41:34;31.60;;;23.77;;
17997;SDS011;9124;48.144;17.098;2022-09-27T07:45:10;28.95;;;24.23;;
17997;SDS011;9124;48.144;17.098;2022-09-27T07:49:10;33.67;;;24.00;;
17997;SDS011;9124;48.144;17.098;2022-09-27T07:53:09;35.97;;;26.85;;
17997;SDS011;9124;48.144;17.098;2022-09-27T07:57:00;33.72;;;25.83;;
17997;SDS011;9124;48.144;17.098;2022-09-27T08:00:38;36.58;;;24.70;;
17997;SDS011;9124;48.144;17.098;2022-09-27T08:04:17;29.80;;;23.65;;
17997;SDS011;9124;48.144;17.098;2022-09-27T08:07:55;27.10;;;23.67;;
17997;SDS011;9124;48.144;17.098;2022-09-27T08:11:32;31.77;;;24.10;;
17997;SDS011;9124;48.144;17.098;2022-09-27T08:15:11;31.15;;;24.63;;
17997;SDS011;9124;48.144;17.098;2022-09-27T08:18:48;30.85;;;23.77;;
17997;SDS011;9124;48.144;17.098;2022-09-27T08:22:47;23.48;;;20.95;;
17997;SDS011;9124;48.144;17.098;2022-09-27T08:26:32;25.13;;;21.23;;
17997;SDS011;9124;48.144;17.098;2022-09-27T08:30:15;20.70;;;18.63;;
17997;SDS011;9124;48.144;17.098;2022-09-27T08:33:52;20.17;;;18.13;;
17997;SDS011;9124;48.144;17.098;2022-09-27T08:37:31;20.92;;;18.92;;
17997;SDS011;9124;48.144;17.098;2022-09-27T08:41:09;22.52;;;20.40;;
17997;SDS011;9124;48.144;17.098;2022-09-27T08:45:11;23.20;;;20.52;;
17997;SDS011;9124;48.144;17.098;2022-09-27T08:48:48;32.40;;;21.50;;
17997;SDS011;9124;48.144;17.098;2022-09-27T08:52:38;26.60;;;20.10;;
17997;SDS011;9124;48.144;17.098;2022-09-27T08:56:21;22.52;;;19.70;;
17997;SDS011;9124;48.144;17.098;2022-09-27T09:00:09;15.65;;;14.13;;
17997;SDS011;9124;48.144;17.098;2022-09-27T09:03:49;11.95;;;10.82;;
17997;SDS011;9124;48.144;17.098;2022-09-27T09:35:25;9.07;;;7.30;;
17997;SDS011;9124;48.144;17.098;2022-09-27T09:39:14;7.55;;;6.97;;
17997;SDS011;9124;48.144;17.098;2022-09-27T09:46:50;6.72;;;6.10;;
17997;SDS011;9124;48.144;17.098;2022-09-27T09:50:35;6.47;;;5.97;;
17997;SDS011;9124;48.144;17.098;2022-09-27T09:54:25;5.70;;;5.22;;
17997;SDS011;9124;48.144;17.098;2022-09-27T10:06:13;2.40;;;2.20;;
17997;SDS011;9124;48.144;17.098;2022-09-27T10:09:52;2.05;;;1.48;;
17997;SDS011;9124;48.144;17.098;2022-09-27T10:13:52;1.58;;;1.48;;
17997;SDS011;9124;48.144;17.098;2022-09-27T10:17:53;2.95;;;2.20;;
17997;SDS011;9124;48.144;17.098;2022-09-27T10:21:33;2.00;;;1.90;;
17997;SDS011;9124;48.144;17.098;2022-09-27T10:25:14;4.63;;;2.03;;
17997;SDS011;9124;48.144;17.098;2022-09-27T10:29:14;1.58;;;1.48;;
17997;SDS011;9124;48.144;17.098;2022-09-27T10:32:56;2.08;;;1.75;;
17997;SDS011;9124;48.144;17.098;2022-09-27T10:41:21;2.38;;;2.00;;
17997;SDS011;9124;48.144;17.098;2022-09-27T10:45:26;2.08;;;1.98;;
17997;SDS011;9124;48.144;17.098;2022-09-27T10:49:07;5.07;;;2.17;;
17997;SDS011;9124;48.144;17.098;2022-09-27T10:53:04;2.03;;;1.90;;
17997;SDS011;9124;48.144;17.098;2022-09-27T10:57:22;1.80;;;1.70;;
17997;SDS011;9124;48.144;17.098;2022-09-27T11:01:15;2.00;;;1.60;;
17997;SDS011;9124;48.144;17.098;2022-09-27T11:05:10;1.83;;;1.60;;
17997;SDS011;9124;48.144;17.098;2022-09-27T11:08:50;1.90;;;1.60;;
17997;SDS011;9124;48.144;17.098;2022-09-27T11:12:28;1.92;;;1.83;;
17997;SDS011;9124;48.144;17.098;2022-09-27T11:23:46;5.28;;;1.42;;
17997;SDS011;9124;48.144;17.098;2022-09-27T11:43:21;1.70;;;1.60;;
17997;SDS011;9124;48.144;17.098;2022-09-27T12:03:39;2.08;;;1.95;;
17997;SDS011;9124;48.144;17.098;2022-09-27T12:15:21;1.92;;;1.83;;
17997;SDS011;9124;48.144;17.098;2022-09-27T12:19:04;2.72;;;2.53;;
17997;SDS011;9124;48.144;17.098;2022-09-27T12:27:16;2.30;;;2.10;;
17997;SDS011;9124;48.144;17.098;2022-09-27T12:31:01;2.00;;;1.90;;
17997;SDS011;9124;48.144;17.098;2022-09-27T12:34:45;2.42;;;2.10;;
17997;SDS011;9124;48.144;17.098;2022-09-27T12:38:55;2.05;;;1.95;;
17997;SDS011;9124;48.144;17.098;2022-09-27T12:42:39;2.65;;;2.45;;
17997;SDS011;9124;48.144;17.098;2022-09-27T12:46:42;2.15;;;2.05;;
17997;SDS011;9124;48.144;17.098;2022-09-27T13:12:25;2.75;;;2.58;;
17997;SDS011;9124;48.144;17.098;2022-09-27T13:16:04;3.50;;;3.20;;
17997;SDS011;9124;48.144;17.098;2022-09-27T13:19:47;5.70;;;3.17;;
17997;SDS011;9124;48.144;17.098;2022-09-27T13:30:59;5.88;;;5.38;;
17997;SDS011;9124;48.144;17.098;2022-09-27T13:34:40;3.40;;;3.20;;
17997;SDS011;9124;48.144;17.098;2022-09-27T13:38:23;2.20;;;2.10;;
17997;SDS011;9124;48.144;17.098;2022-09-27T13:42:04;2.30;;;2.00;;
17997;SDS011;9124;48.144;17.098;2022-09-27T13:46:06;2.00;;;1.83;;
17997;SDS011;9124;48.144;17.098;2022-09-27T13:50:16;3.13;;;1.98;;
17997;SDS011;9124;48.144;17.098;2022-09-27T13:55:36;2.10;;;2.00;;
17997;SDS011;9124;48.144;17.098;2022-09-27T14:02:48;1.95;;;1.85;;
17997;SDS011;9124;48.144;17.098;2022-09-27T14:07:08;3.08;;;1.92;;
17997;SDS011;9124;48.144;17.098;2022-09-27T14:10:49;2.30;;;1.60;;
17997;SDS011;9124;48.144;17.098;2022-09-27T14:14:28;1.80;;;1.70;;
17997;SDS011;9124;48.144;17.098;2022-09-27T14:18:09;1.60;;;1.50;;
17997;SDS011;9124;48.144;17.098;2022-09-27T14:22:02;1.83;;;1.73;;
17997;SDS011;9124;48.144;17.098;2022-09-27T14:26:23;2.42;;;2.22;;
17997;SDS011;9124;48.144;17.098;2022-09-27T14:30:22;2.10;;;1.90;;
17997;SDS011;9124;48.144;17.098;2022-09-27T14:34:10;2.10;;;2.00;;
17997;SDS011;9124;48.144;17.098;2022-09-27T14:37:51;4.10;;;2.95;;
17997;SDS011;9124;48.144;17.098;2022-09-27T14:50:38;1.70;;;1.60;;
17997;SDS011;9124;48.144;17.098;2022-09-27T14:54:19;1.52;;;1.45;;
17997;SDS011;9124;48.144;17.098;2022-09-27T14:57:58;2.35;;;1.60;;
17997;SDS011;9124;48.144;17.098;2022-09-27T15:01:37;1.38;;;1.20;;
17997;SDS011;9124;48.144;17.098;2022-09-27T15:05:15;3.03;;;1.40;;
17997;SDS011;9124;48.144;17.098;2022-09-27T15:08:54;1.88;;;1.77;;
17997;SDS011;9124;48.144;17.098;2022-09-27T15:12:30;1.92;;;1.52;;
17997;SDS011;9124;48.144;17.098;2022-09-27T15:16:13;2.35;;;1.50;;
17997;SDS011;9124;48.144;17.098;2022-09-27T15:19:54;5.90;;;1.20;;
17997;SDS011;9124;48.144;17.098;2022-09-27T15:23:39;6.55;;;0.90;;
17997;SDS011;9124;48.144;17.098;2022-09-27T15:27:21;2.10;;;1.73;;
17997;SDS011;9124;48.144;17.098;2022-09-27T15:31:00;6.70;;;3.92;;
17997;SDS011;9124;48.144;17.098;2022-09-27T15:34:36;3.53;;;2.88;;
17997;SDS011;9124;48.144;17.098;2022-09-27T15:38:29;14.85;;;2.40;;
17997;SDS011;9124;48.144;17.098;2022-09-27T15:42:08;1.75;;;1.65;;
17997;SDS011;9124;48.144;17.098;2022-09-27T15:45:52;1.60;;;1.00;;
17997;SDS011;9124;48.144;17.098;2022-09-27T15:49:29;0.98;;;0.93;;
17997;SDS011;9124;48.144;17.098;2022-09-27T15:53:08;1.38;;;1.05;;
17997;SDS011;9124;48.144;17.098;2022-09-27T15:56:46;2.65;;;0.82;;
17997;SDS011;9124;48.144;17.098;2022-09-27T16:00:25;2.63;;;0.90;;
17997;SDS011;9124;48.144;17.098;2022-09-27T16:04:01;1.30;;;0.90;;
17997;SDS011;9124;48.144;17.098;2022-09-27T16:07:38;3.88;;;1.17;;
17997;SDS011;9124;48.144;17.098;2022-09-27T16:11:14;0.65;;;0.65;;
17997;SDS011;9124;48.144;17.098;2022-09-27T16:14:52;1.15;;;0.70;;
17997;SDS011;9124;48.144;17.098;2022-09-27T16:18:28;1.83;;;1.02;;
17997;SDS011;9124;48.144;17.098;2022-09-27T16:22:04;0.73;;;0.68;;
17997;SDS011;9124;48.144;17.098;2022-09-27T16:25:41;1.23;;;1.02;;
17997;SDS011;9124;48.144;17.098;2022-09-27T16:29:17;2.60;;;1.00;;
17997;SDS011;9124;48.144;17.098;2022-09-27T16:32:53;3.13;;;1.20;;
17997;SDS011;9124;48.144;17.098;2022-09-27T16:36:30;1.17;;;0.70;;
17997;SDS011;9124;48.144;17.098;2022-09-27T16:40:07;1.77;;;1.00;;
17997;SDS011;9124;48.144;17.098;2022-09-27T16:43:45;0.95;;;0.90;;
17997;SDS011;9124;48.144;17.098;2022-09-27T16:47:22;1.23;;;0.90;;
17997;SDS011;9124;48.144;17.098;2022-09-27T16:51:32;0.60;;;0.60;;
17997;SDS011;9124;48.144;17.098;2022-09-27T16:55:20;2.92;;;0.77;;
17997;SDS011;9124;48.144;17.098;2022-09-27T16:58:58;1.05;;;0.75;;
17997;SDS011;9124;48.144;17.098;2022-09-27T17:02:38;1.13;;;0.80;;
17997;SDS011;9124;48.144;17.098;2022-09-27T17:06:15;0.80;;;0.77;;
17997;SDS011;9124;48.144;17.098;2022-09-27T17:09:53;0.68;;;0.68;;
17997;SDS011;9124;48.144;17.098;2022-09-27T17:13:29;1.08;;;0.80;;
17997;SDS011;9124;48.144;17.098;2022-09-27T17:17:06;1.42;;;1.00;;
17997;SDS011;9124;48.144;17.098;2022-09-27T17:20:43;3.53;;;1.45;;
17997;SDS011;9124;48.144;17.098;2022-09-27T17:24:20;1.63;;;1.10;;
17997;SDS011;9124;48.144;17.098;2022-09-27T17:27:56;1.63;;;1.05;;
17997;SDS011;9124;48.144;17.098;2022-09-27T17:31:35;0.70;;;0.70;;
17997;SDS011;9124;48.144;17.098;2022-09-27T17:35:14;1.95;;;1.58;;
17997;SDS011;9124;48.144;17.098;2022-09-27T17:38:51;1.25;;;1.10;;
17997;SDS011;9124;48.144;17.098;2022-09-27T17:42:27;1.33;;;1.10;;
17997;SDS011;9124;48.144;17.098;2022-09-27T17:46:08;2.78;;;0.98;;
17997;SDS011;9124;48.144;17.098;2022-09-27T17:50:05;0.82;;;0.80;;
17997;SDS011;9124;48.144;17.098;2022-09-27T17:54:00;2.15;;;1.83;;
17997;SDS011;9124;48.144;17.098;2022-09-27T17:57:36;1.23;;;1.02;;
17997;SDS011;9124;48.144;17.098;2022-09-27T18:01:13;1.20;;;0.80;;
17997;SDS011;9124;48.144;17.098;2022-09-27T18:04:51;2.40;;;2.10;;
17997;SDS011;9124;48.144;17.098;2022-09-27T18:08:28;9.88;;;6.65;;
17997;SDS011;9124;48.144;17.098;2022-09-27T18:12:06;1.98;;;1.88;;
17997;SDS011;9124;48.144;17.098;2022-09-27T18:15:43;2.35;;;0.90;;
17997;SDS011;9124;48.144;17.098;2022-09-27T18:19:29;5.78;;;5.57;;
17997;SDS011;9124;48.144;17.098;2022-09-27T18:23:06;5.18;;;4.75;;
17997;SDS011;9124;48.144;17.098;2022-09-27T18:26:42;0.65;;;0.65;;
17997;SDS011;9124;48.144;17.098;2022-09-27T18:30:24;0.60;;;0.40;;
17997;SDS011;9124;48.144;17.098;2022-09-27T18:34:00;0.75;;;0.47;;
17997;SDS011;9124;48.144;17.098;2022-09-27T18:37:38;0.55;;;0.30;;
17997;SDS011;9124;48.144;17.098;2022-09-27T18:41:15;0.68;;;0.57;;
17997;SDS011;9124;48.144;17.098;2022-09-27T18:44:53;6.38;;;3.63;;
17997;SDS011;9124;48.144;17.098;2022-09-27T18:48:30;1.50;;;1.15;;
17997;SDS011;9124;48.144;17.098;2022-09-27T18:52:07;1.58;;;0.70;;
17997;SDS011;9124;48.144;17.098;2022-09-27T18:55:43;39.10;;;21.58;;
17997;SDS011;9124;48.144;17.098;2022-09-27T18:59:20;2.58;;;2.38;;
17997;SDS011;9124;48.144;17.098;2022-09-27T19:02:58;0.57;;;0.52;;
17997;SDS011;9124;48.144;17.098;2022-09-27T19:06:35;0.47;;;0.40;;
17997;SDS011;9124;48.144;17.098;2022-09-27T19:10:13;0.40;;;0.40;;
17997;SDS011;9124;48.144;17.098;2022-09-27T19:19:12;0.60;;;0.60;;
17997;SDS011;9124;48.144;17.098;2022-09-27T19:27:29;0.65;;;0.65;;
17997;SDS011;9124;48.144;17.098;2022-09-27T19:31:06;3.60;;;0.75;;
17997;SDS011;9124;48.144;17.098;2022-09-27T19:34:45;0.80;;;0.77;;
17997;SDS011;9124;48.144;17.098;2022-09-27T19:38:21;3.13;;;2.83;;
17997;SDS011;9124;48.144;17.098;2022-09-27T19:41:57;0.70;;;0.70;;
17997;SDS011;9124;48.144;17.098;2022-09-27T19:45:34;0.98;;;0.95;;
17997;SDS011;9124;48.144;17.098;2022-09-27T19:49:12;1.52;;;1.42;;
17997;SDS011;9124;48.144;17.098;2022-09-27T19:52:48;1.63;;;1.52;;
17997;SDS011;9124;48.144;17.098;2022-09-27T19:56:25;0.60;;;0.60;;
17997;SDS011;9124;48.144;17.098;2022-09-27T20:00:01;0.47;;;0.47;;
17997;SDS011;9124;48.144;17.098;2022-09-27T20:13:05;0.65;;;0.50;;
17997;SDS011;9124;48.144;17.098;2022-09-27T20:16:42;0.80;;;0.80;;
17997;SDS011;9124;48.144;17.098;2022-09-27T20:20:18;1.05;;;0.52;;
17997;SDS011;9124;48.144;17.098;2022-09-27T20:23:55;2.35;;;0.55;;
17997;SDS011;9124;48.144;17.098;2022-09-27T20:38:17;3.03;;;0.52;;
17997;SDS011;9124;48.144;17.098;2022-09-27T20:45:58;0.70;;;0.70;;
17997;SDS011;9124;48.144;17.098;2022-09-27T20:54:04;3.38;;;1.50;;
17997;SDS011;9124;48.144;17.098;2022-09-27T21:01:50;0.70;;;0.70;;
17997;SDS011;9124;48.144;17.098;2022-09-27T21:05:27;0.80;;;0.80;;
17997;SDS011;9124;48.144;17.098;2022-09-27T21:09:04;2.58;;;1.00;;
17997;SDS011;9124;48.144;17.098;2022-09-27T21:12:41;1.33;;;0.80;;
17997;SDS011;9124;48.144;17.098;2022-09-27T21:21:27;0.60;;;0.60;;
17997;SDS011;9124;48.144;17.098;2022-09-27T21:34:43;0.93;;;0.60;;
17997;SDS011;9124;48.144;17.098;2022-09-27T21:43:26;1.55;;;0.55;;
17997;SDS011;9124;48.144;17.098;2022-09-27T21:47:04;0.73;;;0.68;;
17997;SDS011;9124;48.144;17.098;2022-09-27T21:50:40;1.00;;;1.00;;
17997;SDS011;9124;48.144;17.098;2022-09-27T21:54:17;3.50;;;1.58;;
17997;SDS011;9124;48.144;17.098;2022-09-27T22:02:16;4.38;;;3.28;;
17997;SDS011;9124;48.144;17.098;2022-09-27T22:05:53;3.58;;;3.22;;
17997;SDS011;9124;48.144;17.098;2022-09-27T22:09:30;2.88;;;2.58;;
17997;SDS011;9124;48.144;17.098;2022-09-27T22:13:06;3.63;;;3.20;;
17997;SDS011;9124;48.144;17.098;2022-09-27T22:16:43;1.50;;;1.40;;
17997;SDS011;9124;48.144;17.098;2022-09-27T22:20:19;2.00;;;1.40;;
17997;SDS011;9124;48.144;17.098;2022-09-27T22:23:57;2.58;;;2.35;;
17997;SDS011;9124;48.144;17.098;2022-09-27T22:27:34;1.20;;;0.80;;
17997;SDS011;9124;48.144;17.098;2022-09-27T22:35:43;0.57;;;0.47;;
17997;SDS011;9124;48.144;17.098;2022-09-27T22:44:01;0.77;;;0.77;;
17997;SDS011;9124;48.144;17.098;2022-09-27T22:47:37;1.80;;;1.00;;
17997;SDS011;9124;48.144;17.098;2022-09-27T22:51:14;1.45;;;1.35;;
17997;SDS011;9124;48.144;17.098;2022-09-27T23:00:21;1.20;;;1.20;;
17997;SDS011;9124;48.144;17.098;2022-09-27T23:03:57;1.10;;;1.02;;
17997;SDS011;9124;48.144;17.098;2022-09-27T23:07:34;2.45;;;0.88;;
17997;SDS011;9124;48.144;17.098;2022-09-27T23:21:02;1.00;;;1.00;;
17997;SDS011;9124;48.144;17.098;2022-09-27T23:24:41;0.75;;;0.75;;
17997;SDS011;9124;48.144;17.098;2022-09-27T23:28:18;0.80;;;0.70;;
17997;SDS011;9124;48.144;17.098;2022-09-27T23:31:54;1.35;;;0.82;;
17997;SDS011;9124;48.144;17.098;2022-09-27T23:35:31;0.60;;;0.60;;
17997;SDS011;9124;48.144;17.098;2022-09-27T23:39:08;0.50;;;0.50;;
17997;SDS011;9124;48.144;17.098;2022-09-27T23:42:44;0.50;;;0.50;;
17997;SDS011;9124;48.144;17.098;2022-09-27T23:46:21;1.25;;;0.57;;
17997;SDS011;9124;48.144;17.098;2022-09-27T23:49:58;1.02;;;0.60;;
17997;SDS011;9124;48.144;17.098;2022-09-27T23:53:34;0.98;;;0.55;;
17997;SDS011;9124;48.144;17.098;2022-09-27T23:57:11;0.40;;;0.40;;
